sensor_id;sensor_type;location;lat;lon;timestamp;P1;durP1;ratioP1;P2;durP2;ratioP2
13321;SDS011;6730;46.248;6.930;2022-11-27T00:01:15;0.33;;;0.33;;
13321;SDS011;6730;46.248;6.930;2022-11-27T00:03:43;0.20;;;0.20;;
13321;SDS011;6730;46.248;6.930;2022-11-27T00:06:12;0.40;;;0.40;;
13321;SDS011;6730;46.248;6.930;2022-11-27T00:08:40;0.50;;;0.50;;
13321;SDS011;6730;46.248;6.930;2022-11-27T00:11:07;0.97;;;0.80;;
13321;SDS011;6730;46.248;6.930;2022-11-27T00:13:35;1.00;;;0.80;;
13321;SDS011;6730;46.248;6.930;2022-11-27T00:16:01;0.90;;;0.70;;
13321;SDS011;6730;46.248;6.930;2022-11-27T00:18:27;1.23;;;0.70;;
13321;SDS011;6730;46.248;6.930;2022-11-27T00:20:53;0.80;;;0.70;;
13321;SDS011;6730;46.248;6.930;2022-11-27T00:23:18;0.93;;;0.53;;
13321;SDS011;6730;46.248;6.930;2022-11-27T00:25:53;0.60;;;0.57;;
13321;SDS011;6730;46.248;6.930;2022-11-27T00:28:19;1.63;;;0.57;;
13321;SDS011;6730;46.248;6.930;2022-11-27T00:30:45;2.23;;;0.47;;
13321;SDS011;6730;46.248;6.930;2022-11-27T00:33:11;2.43;;;0.43;;
13321;SDS011;6730;46.248;6.930;2022-11-27T00:35:37;0.30;;;0.30;;
13321;SDS011;6730;46.248;6.930;2022-11-27T00:38:03;0.40;;;0.40;;
13321;SDS011;6730;46.248;6.930;2022-11-27T00:40:29;0.57;;;0.57;;
13321;SDS011;6730;46.248;6.930;2022-11-27T00:42:55;1.00;;;0.60;;
13321;SDS011;6730;46.248;6.930;2022-11-27T00:45:21;0.40;;;0.40;;
13321;SDS011;6730;46.248;6.930;2022-11-27T00:47:46;0.83;;;0.60;;
13321;SDS011;6730;46.248;6.930;2022-11-27T00:50:12;0.60;;;0.60;;
13321;SDS011;6730;46.248;6.930;2022-11-27T00:52:38;1.53;;;0.50;;
13321;SDS011;6730;46.248;6.930;2022-11-27T00:55:04;0.50;;;0.33;;
13321;SDS011;6730;46.248;6.930;2022-11-27T00:57:30;0.30;;;0.30;;
13321;SDS011;6730;46.248;6.930;2022-11-27T00:59:55;0.50;;;0.50;;
13321;SDS011;6730;46.248;6.930;2022-11-27T01:02:21;0.90;;;0.30;;
13321;SDS011;6730;46.248;6.930;2022-11-27T01:04:47;0.77;;;0.30;;
13321;SDS011;6730;46.248;6.930;2022-11-27T01:07:13;0.30;;;0.30;;
13321;SDS011;6730;46.248;6.930;2022-11-27T01:09:39;0.37;;;0.37;;
13321;SDS011;6730;46.248;6.930;2022-11-27T01:12:05;1.17;;;0.60;;
13321;SDS011;6730;46.248;6.930;2022-11-27T01:14:31;0.60;;;0.50;;
13321;SDS011;6730;46.248;6.930;2022-11-27T01:17:00;1.27;;;0.70;;
13321;SDS011;6730;46.248;6.930;2022-11-27T01:19:30;0.30;;;0.30;;
13321;SDS011;6730;46.248;6.930;2022-11-27T01:21:58;0.97;;;0.60;;
13321;SDS011;6730;46.248;6.930;2022-11-27T01:24:24;1.50;;;0.73;;
13321;SDS011;6730;46.248;6.930;2022-11-27T01:26:50;0.43;;;0.43;;
13321;SDS011;6730;46.248;6.930;2022-11-27T01:29:15;1.27;;;0.50;;
13321;SDS011;6730;46.248;6.930;2022-11-27T01:31:42;1.07;;;0.40;;
13321;SDS011;6730;46.248;6.930;2022-11-27T01:34:11;0.80;;;0.53;;
13321;SDS011;6730;46.248;6.930;2022-11-27T01:36:39;0.40;;;0.40;;
13321;SDS011;6730;46.248;6.930;2022-11-27T01:39:05;0.50;;;0.47;;
13321;SDS011;6730;46.248;6.930;2022-11-27T01:41:34;0.40;;;0.40;;
13321;SDS011;6730;46.248;6.930;2022-11-27T01:46:48;0.10;;;0.10;;
13321;SDS011;6730;46.248;6.930;2022-11-27T01:54:51;0.20;;;0.20;;
13321;SDS011;6730;46.248;6.930;2022-11-27T01:57:19;0.50;;;0.40;;
13321;SDS011;6730;46.248;6.930;2022-11-27T01:59:49;0.30;;;0.30;;
13321;SDS011;6730;46.248;6.930;2022-11-27T02:02:18;2.10;;;0.53;;
13321;SDS011;6730;46.248;6.930;2022-11-27T02:04:44;0.30;;;0.30;;
13321;SDS011;6730;46.248;6.930;2022-11-27T02:07:10;3.20;;;0.37;;
13321;SDS011;6730;46.248;6.930;2022-11-27T02:09:35;0.73;;;0.20;;
13321;SDS011;6730;46.248;6.930;2022-11-27T02:31:24;0.87;;;0.57;;
13321;SDS011;6730;46.248;6.930;2022-11-27T02:42:19;0.70;;;0.50;;
13321;SDS011;6730;46.248;6.930;2022-11-27T02:44:54;0.60;;;0.50;;
13321;SDS011;6730;46.248;6.930;2022-11-27T02:47:30;1.13;;;0.50;;
13321;SDS011;6730;46.248;6.930;2022-11-27T02:49:57;0.43;;;0.40;;
13321;SDS011;6730;46.248;6.930;2022-11-27T02:52:24;0.63;;;0.63;;
13321;SDS011;6730;46.248;6.930;2022-11-27T02:54:53;0.37;;;0.37;;
13321;SDS011;6730;46.248;6.930;2022-11-27T02:57:22;0.60;;;0.57;;
13321;SDS011;6730;46.248;6.930;2022-11-27T02:59:49;0.50;;;0.50;;
13321;SDS011;6730;46.248;6.930;2022-11-27T03:02:20;0.77;;;0.57;;
13321;SDS011;6730;46.248;6.930;2022-11-27T03:04:52;0.53;;;0.37;;
13321;SDS011;6730;46.248;6.930;2022-11-27T03:07:22;0.47;;;0.40;;
13321;SDS011;6730;46.248;6.930;2022-11-27T03:09:57;0.50;;;0.50;;
13321;SDS011;6730;46.248;6.930;2022-11-27T03:12:27;1.27;;;0.60;;
13321;SDS011;6730;46.248;6.930;2022-11-27T03:14:53;0.50;;;0.50;;
13321;SDS011;6730;46.248;6.930;2022-11-27T03:20:16;0.43;;;0.43;;
13321;SDS011;6730;46.248;6.930;2022-11-27T03:22:51;0.30;;;0.30;;
13321;SDS011;6730;46.248;6.930;2022-11-27T03:25:21;0.30;;;0.30;;
13321;SDS011;6730;46.248;6.930;2022-11-27T03:27:49;0.30;;;0.30;;
13321;SDS011;6730;46.248;6.930;2022-11-27T03:30:20;0.30;;;0.30;;
13321;SDS011;6730;46.248;6.930;2022-11-27T03:32:45;0.30;;;0.30;;
13321;SDS011;6730;46.248;6.930;2022-11-27T03:35:12;0.60;;;0.60;;
13321;SDS011;6730;46.248;6.930;2022-11-27T03:37:40;0.40;;;0.40;;
13321;SDS011;6730;46.248;6.930;2022-11-27T03:40:06;0.50;;;0.50;;
13321;SDS011;6730;46.248;6.930;2022-11-27T03:42:37;0.83;;;0.50;;
13321;SDS011;6730;46.248;6.930;2022-11-27T03:45:28;0.53;;;0.53;;
13321;SDS011;6730;46.248;6.930;2022-11-27T03:53:32;0.70;;;0.40;;
13321;SDS011;6730;46.248;6.930;2022-11-27T03:58:35;0.40;;;0.30;;
13321;SDS011;6730;46.248;6.930;2022-11-27T04:01:08;0.77;;;0.40;;
13321;SDS011;6730;46.248;6.930;2022-11-27T04:03:36;0.67;;;0.30;;
13321;SDS011;6730;46.248;6.930;2022-11-27T04:06:02;0.83;;;0.30;;
13321;SDS011;6730;46.248;6.930;2022-11-27T04:08:28;0.37;;;0.37;;
13321;SDS011;6730;46.248;6.930;2022-11-27T04:10:54;0.30;;;0.30;;
13321;SDS011;6730;46.248;6.930;2022-11-27T04:13:20;0.30;;;0.30;;
13321;SDS011;6730;46.248;6.930;2022-11-27T04:15:45;0.47;;;0.40;;
13321;SDS011;6730;46.248;6.930;2022-11-27T04:18:11;0.47;;;0.37;;
13321;SDS011;6730;46.248;6.930;2022-11-27T04:20:37;0.33;;;0.30;;
13321;SDS011;6730;46.248;6.930;2022-11-27T04:23:03;0.27;;;0.27;;
13321;SDS011;6730;46.248;6.930;2022-11-27T04:25:28;0.37;;;0.37;;
13321;SDS011;6730;46.248;6.930;2022-11-27T04:27:54;0.60;;;0.50;;
13321;SDS011;6730;46.248;6.930;2022-11-27T04:30:20;0.43;;;0.43;;
13321;SDS011;6730;46.248;6.930;2022-11-27T04:32:46;0.53;;;0.30;;
13321;SDS011;6730;46.248;6.930;2022-11-27T04:35:11;0.40;;;0.37;;
13321;SDS011;6730;46.248;6.930;2022-11-27T04:37:37;0.57;;;0.40;;
13321;SDS011;6730;46.248;6.930;2022-11-27T04:40:03;0.80;;;0.40;;
13321;SDS011;6730;46.248;6.930;2022-11-27T04:42:30;0.27;;;0.27;;
13321;SDS011;6730;46.248;6.930;2022-11-27T04:44:56;0.40;;;0.30;;
13321;SDS011;6730;46.248;6.930;2022-11-27T04:47:21;1.30;;;0.60;;
13321;SDS011;6730;46.248;6.930;2022-11-27T04:49:47;0.30;;;0.30;;
13321;SDS011;6730;46.248;6.930;2022-11-27T04:52:13;0.40;;;0.40;;
13321;SDS011;6730;46.248;6.930;2022-11-27T04:54:38;0.70;;;0.40;;
13321;SDS011;6730;46.248;6.930;2022-11-27T04:57:04;0.60;;;0.40;;
13321;SDS011;6730;46.248;6.930;2022-11-27T04:59:30;0.20;;;0.20;;
13321;SDS011;6730;46.248;6.930;2022-11-27T05:01:56;0.67;;;0.47;;
13321;SDS011;6730;46.248;6.930;2022-11-27T05:04:21;1.20;;;0.20;;
13321;SDS011;6730;46.248;6.930;2022-11-27T05:06:47;0.93;;;0.40;;
13321;SDS011;6730;46.248;6.930;2022-11-27T05:09:13;0.53;;;0.30;;
13321;SDS011;6730;46.248;6.930;2022-11-27T05:11:40;1.17;;;0.30;;
13321;SDS011;6730;46.248;6.930;2022-11-27T05:14:06;0.30;;;0.30;;
13321;SDS011;6730;46.248;6.930;2022-11-27T05:16:47;0.40;;;0.27;;
13321;SDS011;6730;46.248;6.930;2022-11-27T05:19:18;0.20;;;0.20;;
13321;SDS011;6730;46.248;6.930;2022-11-27T05:21:45;0.30;;;0.20;;
13321;SDS011;6730;46.248;6.930;2022-11-27T05:24:12;0.63;;;0.50;;
13321;SDS011;6730;46.248;6.930;2022-11-27T05:26:39;0.43;;;0.20;;
13321;SDS011;6730;46.248;6.930;2022-11-27T05:29:05;0.30;;;0.30;;
13321;SDS011;6730;46.248;6.930;2022-11-27T05:31:32;0.57;;;0.23;;
13321;SDS011;6730;46.248;6.930;2022-11-27T05:33:58;0.10;;;0.10;;
13321;SDS011;6730;46.248;6.930;2022-11-27T05:36:23;0.30;;;0.20;;
13321;SDS011;6730;46.248;6.930;2022-11-27T05:38:50;0.40;;;0.20;;
13321;SDS011;6730;46.248;6.930;2022-11-27T05:41:16;0.40;;;0.27;;
13321;SDS011;6730;46.248;6.930;2022-11-27T05:43:41;0.20;;;0.20;;
13321;SDS011;6730;46.248;6.930;2022-11-27T05:46:08;0.57;;;0.50;;
13321;SDS011;6730;46.248;6.930;2022-11-27T05:48:36;0.10;;;0.10;;
13321;SDS011;6730;46.248;6.930;2022-11-27T05:51:02;0.30;;;0.30;;
13321;SDS011;6730;46.248;6.930;2022-11-27T05:53:29;0.73;;;0.40;;
13321;SDS011;6730;46.248;6.930;2022-11-27T05:55:59;0.33;;;0.30;;
13321;SDS011;6730;46.248;6.930;2022-11-27T05:58:29;0.90;;;0.30;;
13321;SDS011;6730;46.248;6.930;2022-11-27T06:00:55;0.60;;;0.60;;
13321;SDS011;6730;46.248;6.930;2022-11-27T06:03:21;0.40;;;0.40;;
13321;SDS011;6730;46.248;6.930;2022-11-27T06:05:47;1.67;;;0.30;;
13321;SDS011;6730;46.248;6.930;2022-11-27T06:08:12;0.50;;;0.50;;
13321;SDS011;6730;46.248;6.930;2022-11-27T06:10:38;2.60;;;0.50;;
13321;SDS011;6730;46.248;6.930;2022-11-27T06:13:04;0.43;;;0.40;;
13321;SDS011;6730;46.248;6.930;2022-11-27T06:15:30;0.37;;;0.37;;
13321;SDS011;6730;46.248;6.930;2022-11-27T06:17:56;0.20;;;0.20;;
13321;SDS011;6730;46.248;6.930;2022-11-27T06:20:21;1.00;;;0.50;;
13321;SDS011;6730;46.248;6.930;2022-11-27T06:22:48;0.40;;;0.40;;
13321;SDS011;6730;46.248;6.930;2022-11-27T06:25:14;0.30;;;0.23;;
13321;SDS011;6730;46.248;6.930;2022-11-27T06:27:39;0.40;;;0.40;;
13321;SDS011;6730;46.248;6.930;2022-11-27T06:30:05;0.20;;;0.20;;
13321;SDS011;6730;46.248;6.930;2022-11-27T06:32:31;0.43;;;0.43;;
13321;SDS011;6730;46.248;6.930;2022-11-27T06:34:57;3.57;;;0.40;;
13321;SDS011;6730;46.248;6.930;2022-11-27T06:37:23;0.37;;;0.30;;
13321;SDS011;6730;46.248;6.930;2022-11-27T06:39:48;1.30;;;0.30;;
13321;SDS011;6730;46.248;6.930;2022-11-27T06:42:14;0.30;;;0.30;;
13321;SDS011;6730;46.248;6.930;2022-11-27T06:44:40;0.30;;;0.30;;
13321;SDS011;6730;46.248;6.930;2022-11-27T06:47:06;0.40;;;0.30;;
13321;SDS011;6730;46.248;6.930;2022-11-27T06:49:32;0.20;;;0.10;;
13321;SDS011;6730;46.248;6.930;2022-11-27T06:51:58;0.43;;;0.37;;
13321;SDS011;6730;46.248;6.930;2022-11-27T06:54:24;0.40;;;0.40;;
13321;SDS011;6730;46.248;6.930;2022-11-27T06:56:50;0.57;;;0.40;;
13321;SDS011;6730;46.248;6.930;2022-11-27T06:59:16;1.27;;;0.60;;
13321;SDS011;6730;46.248;6.930;2022-11-27T07:01:43;0.70;;;0.37;;
13321;SDS011;6730;46.248;6.930;2022-11-27T07:04:12;0.20;;;0.20;;
13321;SDS011;6730;46.248;6.930;2022-11-27T07:06:41;0.20;;;0.20;;
13321;SDS011;6730;46.248;6.930;2022-11-27T07:09:07;0.47;;;0.40;;
13321;SDS011;6730;46.248;6.930;2022-11-27T07:11:34;0.93;;;0.40;;
13321;SDS011;6730;46.248;6.930;2022-11-27T07:14:00;0.60;;;0.60;;
13321;SDS011;6730;46.248;6.930;2022-11-27T07:16:29;0.50;;;0.50;;
13321;SDS011;6730;46.248;6.930;2022-11-27T07:18:57;0.30;;;0.30;;
13321;SDS011;6730;46.248;6.930;2022-11-27T07:21:24;1.20;;;0.50;;
13321;SDS011;6730;46.248;6.930;2022-11-27T07:23:50;0.30;;;0.30;;
13321;SDS011;6730;46.248;6.930;2022-11-27T07:26:17;1.23;;;0.40;;
13321;SDS011;6730;46.248;6.930;2022-11-27T07:28:47;2.37;;;0.50;;
13321;SDS011;6730;46.248;6.930;2022-11-27T07:31:17;0.50;;;0.40;;
13321;SDS011;6730;46.248;6.930;2022-11-27T07:33:44;0.40;;;0.40;;
13321;SDS011;6730;46.248;6.930;2022-11-27T07:36:14;0.47;;;0.33;;
13321;SDS011;6730;46.248;6.930;2022-11-27T07:38:42;0.70;;;0.40;;
13321;SDS011;6730;46.248;6.930;2022-11-27T07:41:09;2.03;;;0.80;;
13321;SDS011;6730;46.248;6.930;2022-11-27T07:43:35;0.60;;;0.60;;
13321;SDS011;6730;46.248;6.930;2022-11-27T07:46:04;0.70;;;0.43;;
13321;SDS011;6730;46.248;6.930;2022-11-27T07:48:32;1.47;;;1.00;;
13321;SDS011;6730;46.248;6.930;2022-11-27T07:50:58;1.10;;;1.00;;
13321;SDS011;6730;46.248;6.930;2022-11-27T07:53:24;3.50;;;2.87;;
13321;SDS011;6730;46.248;6.930;2022-11-27T07:55:50;2.27;;;1.67;;
13321;SDS011;6730;46.248;6.930;2022-11-27T07:58:16;1.57;;;1.27;;
13321;SDS011;6730;46.248;6.930;2022-11-27T08:00:42;0.93;;;0.90;;
13321;SDS011;6730;46.248;6.930;2022-11-27T08:03:08;1.07;;;0.83;;
13321;SDS011;6730;46.248;6.930;2022-11-27T08:05:35;0.57;;;0.40;;
13321;SDS011;6730;46.248;6.930;2022-11-27T08:08:01;2.90;;;1.57;;
13321;SDS011;6730;46.248;6.930;2022-11-27T08:10:28;1.10;;;1.00;;
13321;SDS011;6730;46.248;6.930;2022-11-27T08:12:56;0.93;;;0.90;;
13321;SDS011;6730;46.248;6.930;2022-11-27T08:15:22;1.17;;;0.90;;
13321;SDS011;6730;46.248;6.930;2022-11-27T08:17:48;1.47;;;0.93;;
13321;SDS011;6730;46.248;6.930;2022-11-27T08:20:14;1.40;;;0.90;;
13321;SDS011;6730;46.248;6.930;2022-11-27T08:22:39;0.90;;;0.70;;
13321;SDS011;6730;46.248;6.930;2022-11-27T08:25:05;1.17;;;1.00;;
13321;SDS011;6730;46.248;6.930;2022-11-27T08:27:31;1.30;;;1.20;;
13321;SDS011;6730;46.248;6.930;2022-11-27T08:29:57;1.40;;;1.00;;
13321;SDS011;6730;46.248;6.930;2022-11-27T08:32:23;1.77;;;1.50;;
13321;SDS011;6730;46.248;6.930;2022-11-27T08:34:49;2.13;;;1.90;;
13321;SDS011;6730;46.248;6.930;2022-11-27T08:37:15;2.13;;;1.30;;
13321;SDS011;6730;46.248;6.930;2022-11-27T08:39:40;1.33;;;1.23;;
13321;SDS011;6730;46.248;6.930;2022-11-27T08:42:06;1.55;;;1.27;;
13321;SDS011;6730;46.248;6.930;2022-11-27T08:44:32;1.55;;;1.40;;
13321;SDS011;6730;46.248;6.930;2022-11-27T08:46:58;1.88;;;1.70;;
13321;SDS011;6730;46.248;6.930;2022-11-27T08:49:23;1.27;;;1.17;;
13321;SDS011;6730;46.248;6.930;2022-11-27T08:51:49;1.20;;;1.10;;
13321;SDS011;6730;46.248;6.930;2022-11-27T08:54:15;1.17;;;0.90;;
13321;SDS011;6730;46.248;6.930;2022-11-27T08:56:40;1.17;;;1.00;;
13321;SDS011;6730;46.248;6.930;2022-11-27T08:59:06;1.48;;;1.00;;
13321;SDS011;6730;46.248;6.930;2022-11-27T09:01:32;1.88;;;1.38;;
13321;SDS011;6730;46.248;6.930;2022-11-27T09:03:58;2.60;;;2.17;;
13321;SDS011;6730;46.248;6.930;2022-11-27T09:06:24;2.20;;;1.60;;
13321;SDS011;6730;46.248;6.930;2022-11-27T09:08:54;1.60;;;1.50;;
13321;SDS011;6730;46.248;6.930;2022-11-27T09:11:20;1.50;;;1.33;;
13321;SDS011;6730;46.248;6.930;2022-11-27T09:13:47;1.40;;;1.30;;
13321;SDS011;6730;46.248;6.930;2022-11-27T09:16:14;0.95;;;0.85;;
13321;SDS011;6730;46.248;6.930;2022-11-27T09:18:46;0.60;;;0.60;;
13321;SDS011;6730;46.248;6.930;2022-11-27T09:21:14;1.20;;;0.90;;
13321;SDS011;6730;46.248;6.930;2022-11-27T09:23:41;1.27;;;0.70;;
13321;SDS011;6730;46.248;6.930;2022-11-27T09:26:11;1.73;;;1.25;;
13321;SDS011;6730;46.248;6.930;2022-11-27T09:28:39;1.70;;;1.27;;
13321;SDS011;6730;46.248;6.930;2022-11-27T09:31:06;1.83;;;1.42;;
13321;SDS011;6730;46.248;6.930;2022-11-27T09:33:34;2.43;;;1.73;;
13321;SDS011;6730;46.248;6.930;2022-11-27T09:36:23;2.10;;;1.67;;
13321;SDS011;6730;46.248;6.930;2022-11-27T09:38:47;3.27;;;2.00;;
13321;SDS011;6730;46.248;6.930;2022-11-27T09:44:00;1.67;;;1.38;;
13321;SDS011;6730;46.248;6.930;2022-11-27T09:46:31;1.92;;;1.25;;
13321;SDS011;6730;46.248;6.930;2022-11-27T09:49:02;1.85;;;1.40;;
13321;SDS011;6730;46.248;6.930;2022-11-27T09:54:32;2.33;;;1.52;;
13321;SDS011;6730;46.248;6.930;2022-11-27T09:57:05;1.60;;;1.50;;
13321;SDS011;6730;46.248;6.930;2022-11-27T09:59:45;1.55;;;1.27;;
13321;SDS011;6730;46.248;6.930;2022-11-27T10:02:18;2.05;;;1.50;;
13321;SDS011;6730;46.248;6.930;2022-11-27T10:04:51;1.85;;;1.33;;
13321;SDS011;6730;46.248;6.930;2022-11-27T10:18:05;1.83;;;1.40;;
13321;SDS011;6730;46.248;6.930;2022-11-27T10:20:37;3.72;;;2.10;;
13321;SDS011;6730;46.248;6.930;2022-11-27T10:25:44;2.22;;;2.00;;
13321;SDS011;6730;46.248;6.930;2022-11-27T10:31:09;3.35;;;1.83;;
13321;SDS011;6730;46.248;6.930;2022-11-27T10:33:42;2.75;;;2.10;;
13321;SDS011;6730;46.248;6.930;2022-11-27T10:36:21;1.40;;;1.30;;
13321;SDS011;6730;46.248;6.930;2022-11-27T10:38:51;2.47;;;1.33;;
13321;SDS011;6730;46.248;6.930;2022-11-27T10:41:21;1.45;;;1.30;;
13321;SDS011;6730;46.248;6.930;2022-11-27T10:43:53;1.88;;;1.48;;
13321;SDS011;6730;46.248;6.930;2022-11-27T10:46:23;1.70;;;1.25;;
13321;SDS011;6730;46.248;6.930;2022-11-27T10:48:56;1.55;;;1.38;;
13321;SDS011;6730;46.248;6.930;2022-11-27T10:51:32;2.28;;;1.52;;
13321;SDS011;6730;46.248;6.930;2022-11-27T10:54:01;1.55;;;1.45;;
13321;SDS011;6730;46.248;6.930;2022-11-27T10:56:38;2.42;;;1.60;;
13321;SDS011;6730;46.248;6.930;2022-11-27T10:59:10;3.47;;;2.58;;
13321;SDS011;6730;46.248;6.930;2022-11-27T11:01:43;2.40;;;2.00;;
13321;SDS011;6730;46.248;6.930;2022-11-27T11:04:14;2.63;;;1.95;;
13321;SDS011;6730;46.248;6.930;2022-11-27T11:06:48;3.20;;;2.45;;
13321;SDS011;6730;46.248;6.930;2022-11-27T11:09:18;2.30;;;2.05;;
13321;SDS011;6730;46.248;6.930;2022-11-27T11:11:46;1.85;;;1.35;;
13321;SDS011;6730;46.248;6.930;2022-11-27T11:14:22;1.33;;;1.20;;
13321;SDS011;6730;46.248;6.930;2022-11-27T11:16:49;1.13;;;1.00;;
13321;SDS011;6730;46.248;6.930;2022-11-27T11:19:31;1.55;;;1.40;;
13321;SDS011;6730;46.248;6.930;2022-11-27T11:21:59;1.88;;;1.30;;
13321;SDS011;6730;46.248;6.930;2022-11-27T11:24:30;1.48;;;1.38;;
13321;SDS011;6730;46.248;6.930;2022-11-27T11:27:03;2.10;;;1.30;;
13321;SDS011;6730;46.248;6.930;2022-11-27T11:32:22;6.93;;;4.15;;
13321;SDS011;6730;46.248;6.930;2022-11-27T11:37:33;3.60;;;2.70;;
13321;SDS011;6730;46.248;6.930;2022-11-27T11:40:07;1.58;;;1.27;;
13321;SDS011;6730;46.248;6.930;2022-11-27T11:42:34;2.50;;;1.63;;
13321;SDS011;6730;46.248;6.930;2022-11-27T11:47:47;1.83;;;1.40;;
13321;SDS011;6730;46.248;6.930;2022-11-27T11:53:01;1.98;;;1.40;;
13321;SDS011;6730;46.248;6.930;2022-11-27T11:55:38;1.52;;;1.42;;
13321;SDS011;6730;46.248;6.930;2022-11-27T12:12:25;1.50;;;1.40;;
13321;SDS011;6730;46.248;6.930;2022-11-27T12:15:05;2.05;;;1.33;;
13321;SDS011;6730;46.248;6.930;2022-11-27T12:17:44;2.00;;;1.35;;
13321;SDS011;6730;46.248;6.930;2022-11-27T12:20:23;3.00;;;1.30;;
13321;SDS011;6730;46.248;6.930;2022-11-27T12:23:32;1.75;;;1.60;;
13321;SDS011;6730;46.248;6.930;2022-11-27T12:26:16;1.55;;;1.42;;
13321;SDS011;6730;46.248;6.930;2022-11-27T12:28:54;2.45;;;1.33;;
13321;SDS011;6730;46.248;6.930;2022-11-27T12:31:51;2.72;;;1.38;;
13321;SDS011;6730;46.248;6.930;2022-11-27T12:42:52;1.35;;;1.20;;
13321;SDS011;6730;46.248;6.930;2022-11-27T12:45:25;1.55;;;1.45;;
13321;SDS011;6730;46.248;6.930;2022-11-27T12:48:01;1.50;;;1.25;;
13321;SDS011;6730;46.248;6.930;2022-11-27T12:53:30;2.80;;;2.60;;
13321;SDS011;6730;46.248;6.930;2022-11-27T12:58:58;1.40;;;1.10;;
13321;SDS011;6730;46.248;6.930;2022-11-27T13:01:34;1.58;;;1.38;;
13321;SDS011;6730;46.248;6.930;2022-11-27T13:07:34;1.23;;;1.13;;
13321;SDS011;6730;46.248;6.930;2022-11-27T13:12:43;1.75;;;1.35;;
13321;SDS011;6730;46.248;6.930;2022-11-27T13:15:25;2.20;;;1.70;;
13321;SDS011;6730;46.248;6.930;2022-11-27T13:21:03;2.35;;;1.58;;
13321;SDS011;6730;46.248;6.930;2022-11-27T13:23:33;1.98;;;1.63;;
13321;SDS011;6730;46.248;6.930;2022-11-27T13:26:03;1.90;;;1.73;;
13321;SDS011;6730;46.248;6.930;2022-11-27T13:28:45;2.35;;;1.30;;
13321;SDS011;6730;46.248;6.930;2022-11-27T13:31:34;2.28;;;1.55;;
13321;SDS011;6730;46.248;6.930;2022-11-27T13:34:24;2.75;;;1.30;;
13321;SDS011;6730;46.248;6.930;2022-11-27T13:37:53;2.63;;;1.50;;
13321;SDS011;6730;46.248;6.930;2022-11-27T13:39:57;1.58;;;1.20;;
13321;SDS011;6730;46.248;6.930;2022-11-27T13:42:24;1.55;;;1.08;;
13321;SDS011;6730;46.248;6.930;2022-11-27T13:44:54;2.15;;;1.27;;
13321;SDS011;6730;46.248;6.930;2022-11-27T13:47:35;2.58;;;1.33;;
13321;SDS011;6730;46.248;6.930;2022-11-27T13:52:35;2.35;;;1.38;;
13321;SDS011;6730;46.248;6.930;2022-11-27T13:55:02;1.83;;;1.30;;
13321;SDS011;6730;46.248;6.930;2022-11-27T13:57:30;3.10;;;1.67;;
13321;SDS011;6730;46.248;6.930;2022-11-27T14:00:09;2.60;;;2.22;;
13321;SDS011;6730;46.248;6.930;2022-11-27T14:02:44;3.05;;;1.90;;
13321;SDS011;6730;46.248;6.930;2022-11-27T14:05:15;3.15;;;1.95;;
13321;SDS011;6730;46.248;6.930;2022-11-27T14:07:47;2.45;;;2.05;;
13321;SDS011;6730;46.248;6.930;2022-11-27T14:10:16;2.95;;;1.95;;
13321;SDS011;6730;46.248;6.930;2022-11-27T14:15:32;1.95;;;1.48;;
13321;SDS011;6730;46.248;6.930;2022-11-27T14:18:16;2.22;;;2.03;;
13321;SDS011;6730;46.248;6.930;2022-11-27T14:20:45;2.70;;;1.80;;
13321;SDS011;6730;46.248;6.930;2022-11-27T14:23:14;2.42;;;2.00;;
13321;SDS011;6730;46.248;6.930;2022-11-27T14:26:02;1.90;;;1.57;;
13321;SDS011;6730;46.248;6.930;2022-11-27T14:28:49;1.92;;;1.30;;
13321;SDS011;6730;46.248;6.930;2022-11-27T14:31:21;2.38;;;1.67;;
13321;SDS011;6730;46.248;6.930;2022-11-27T14:33:54;2.00;;;1.40;;
13321;SDS011;6730;46.248;6.930;2022-11-27T14:36:25;3.07;;;1.93;;
13321;SDS011;6730;46.248;6.930;2022-11-27T14:38:54;4.95;;;2.47;;
13321;SDS011;6730;46.248;6.930;2022-11-27T14:41:21;4.65;;;2.22;;
13321;SDS011;6730;46.248;6.930;2022-11-27T14:43:58;6.38;;;3.05;;
13321;SDS011;6730;46.248;6.930;2022-11-27T14:46:24;4.07;;;3.17;;
13321;SDS011;6730;46.248;6.930;2022-11-27T14:48:51;4.30;;;2.90;;
13321;SDS011;6730;46.248;6.930;2022-11-27T14:51:22;7.68;;;4.30;;
13321;SDS011;6730;46.248;6.930;2022-11-27T14:53:51;5.45;;;2.30;;
13321;SDS011;6730;46.248;6.930;2022-11-27T14:56:22;8.70;;;5.13;;
13321;SDS011;6730;46.248;6.930;2022-11-27T14:58:50;4.47;;;3.33;;
13321;SDS011;6730;46.248;6.930;2022-11-27T15:03:55;8.02;;;6.15;;
13321;SDS011;6730;46.248;6.930;2022-11-27T15:06:44;3.70;;;2.50;;
13321;SDS011;6730;46.248;6.930;2022-11-27T15:09:17;2.83;;;2.00;;
13321;SDS011;6730;46.248;6.930;2022-11-27T15:11:48;3.70;;;2.67;;
13321;SDS011;6730;46.248;6.930;2022-11-27T15:14:15;2.33;;;1.90;;
13321;SDS011;6730;46.248;6.930;2022-11-27T15:16:45;4.07;;;2.00;;
13321;SDS011;6730;46.248;6.930;2022-11-27T15:19:16;2.27;;;2.03;;
13321;SDS011;6730;46.248;6.930;2022-11-27T15:21:54;3.90;;;2.90;;
13321;SDS011;6730;46.248;6.930;2022-11-27T15:24:27;3.63;;;2.40;;
13321;SDS011;6730;46.248;6.930;2022-11-27T15:29:40;2.85;;;2.00;;
13321;SDS011;6730;46.248;6.930;2022-11-27T15:32:32;3.60;;;2.72;;
13321;SDS011;6730;46.248;6.930;2022-11-27T15:35:14;2.88;;;2.10;;
13321;SDS011;6730;46.248;6.930;2022-11-27T15:37:44;3.45;;;2.50;;
13321;SDS011;6730;46.248;6.930;2022-11-27T15:42:51;2.53;;;2.30;;
13321;SDS011;6730;46.248;6.930;2022-11-27T15:45:17;3.67;;;2.10;;
13321;SDS011;6730;46.248;6.930;2022-11-27T15:47:42;2.80;;;1.95;;
13321;SDS011;6730;46.248;6.930;2022-11-27T15:50:12;3.55;;;2.03;;
13321;SDS011;6730;46.248;6.930;2022-11-27T15:52:39;2.42;;;2.17;;
13321;SDS011;6730;46.248;6.930;2022-11-27T15:55:05;3.60;;;2.83;;
13321;SDS011;6730;46.248;6.930;2022-11-27T15:57:31;3.95;;;2.80;;
13321;SDS011;6730;46.248;6.930;2022-11-27T15:59:57;7.82;;;4.88;;
13321;SDS011;6730;46.248;6.930;2022-11-27T16:02:23;5.97;;;4.27;;
13321;SDS011;6730;46.248;6.930;2022-11-27T16:04:52;6.70;;;3.87;;
13321;SDS011;6730;46.248;6.930;2022-11-27T16:07:18;3.07;;;2.53;;
13321;SDS011;6730;46.248;6.930;2022-11-27T16:09:43;2.97;;;1.67;;
13321;SDS011;6730;46.248;6.930;2022-11-27T16:12:09;4.57;;;2.87;;
13321;SDS011;6730;46.248;6.930;2022-11-27T16:14:34;2.00;;;1.80;;
13321;SDS011;6730;46.248;6.930;2022-11-27T16:17:00;1.63;;;1.10;;
13321;SDS011;6730;46.248;6.930;2022-11-27T16:19:26;1.67;;;1.40;;
13321;SDS011;6730;46.248;6.930;2022-11-27T16:21:51;3.20;;;1.37;;
13321;SDS011;6730;46.248;6.930;2022-11-27T16:24:17;2.30;;;1.70;;
13321;SDS011;6730;46.248;6.930;2022-11-27T16:26:43;5.07;;;2.93;;
13321;SDS011;6730;46.248;6.930;2022-11-27T16:29:09;6.10;;;4.10;;
13321;SDS011;6730;46.248;6.930;2022-11-27T16:31:36;2.73;;;2.10;;
13321;SDS011;6730;46.248;6.930;2022-11-27T16:34:02;2.83;;;2.20;;
13321;SDS011;6730;46.248;6.930;2022-11-27T16:36:30;4.00;;;2.10;;
13321;SDS011;6730;46.248;6.930;2022-11-27T16:38:59;3.05;;;2.42;;
13321;SDS011;6730;46.248;6.930;2022-11-27T16:41:25;3.03;;;2.23;;
13321;SDS011;6730;46.248;6.930;2022-11-27T16:43:53;2.90;;;2.60;;
13321;SDS011;6730;46.248;6.930;2022-11-27T16:46:21;4.63;;;3.33;;
13321;SDS011;6730;46.248;6.930;2022-11-27T16:48:50;3.67;;;3.17;;
13321;SDS011;6730;46.248;6.930;2022-11-27T16:53:44;3.88;;;3.35;;
13321;SDS011;6730;46.248;6.930;2022-11-27T16:56:11;6.90;;;4.90;;
13321;SDS011;6730;46.248;6.930;2022-11-27T16:58:39;7.97;;;5.95;;
13321;SDS011;6730;46.248;6.930;2022-11-27T17:01:09;10.93;;;7.35;;
13321;SDS011;6730;46.248;6.930;2022-11-27T17:03:40;8.98;;;6.97;;
13321;SDS011;6730;46.248;6.930;2022-11-27T17:06:09;8.80;;;6.35;;
13321;SDS011;6730;46.248;6.930;2022-11-27T17:08:39;7.82;;;5.35;;
13321;SDS011;6730;46.248;6.930;2022-11-27T17:11:06;7.45;;;5.53;;
13321;SDS011;6730;46.248;6.930;2022-11-27T17:13:35;7.40;;;5.10;;
13321;SDS011;6730;46.248;6.930;2022-11-27T17:16:02;6.05;;;4.38;;
13321;SDS011;6730;46.248;6.930;2022-11-27T17:18:28;4.95;;;4.13;;
13321;SDS011;6730;46.248;6.930;2022-11-27T17:21:16;4.40;;;3.42;;
13321;SDS011;6730;46.248;6.930;2022-11-27T17:23:42;3.97;;;2.77;;
13321;SDS011;6730;46.248;6.930;2022-11-27T17:26:11;3.27;;;2.70;;